KMXF/MXF METAR and TAF weather

Enter ICAO airport designator
Station Type Date Time Source
KMXF METAR 2022/06/27 16:56 UTC NOAA

KMXF 271656Z AUTO 31012KT 10SM FEW041 SCT070 BKN120 30/19 A3006 RMK AO2 SLP180 T02970191


Station Type Date Time Source
KMXF Decoded METAR 2022/06/27 16:56 UTC NOAA

Maxwell Air Force Base / Montgomery, AL, United States (KMXF) 32-23N 086-22W
Jun 27, 2022 - 12:56 PM EDT / 2022.06.27 1656 UTC
Wind: from the NW (310 degrees) at 14 MPH (12 KT):0
Visibility: 10 mile(s):0
Sky conditions: mostly cloudy
Temperature: 85.5 F (29.7 C)
Dew Point: 66.4 F (19.1 C)
Relative Humidity: 52%
Pressure (altimeter): 30.06 in. Hg (1017 hPa)
ob: KMXF 271656Z AUTO 31012KT 10SM FEW041 SCT070 BKN120 30/19 A3006 RMK AO2 SLP180 T02970191
cycle: 17

Station Type Date Time Source
KMXF TAF 2022/06/27 11:15 UTC NOAA

TAF KMXF 271105Z 2711/2817 VRB06KT 9999 FEW045 QNH3003INS
BECMG 2716/2717 VRB06KT 9000 -SHRA SCT040 QNH3006INS
TEMPO 2716/2722 VRB15G20KT 9000 -TSRA BKN040CB
BECMG 2801/2802 VRB06KT 8000 -SHRA SCT017 QNH3000INS
BECMG 2805/2806 VRB06KT 8000 BR FEW010 QNH3001INS TX30/2717Z TN23/2711Z

Example: see airport list